Pagina principale
METAR-TAF:

METAR-TAF

Aeroporti :

Copenaghen, Danimarca

Aeroporto di Copenaghen

latitudine: 55-37N, longitudine: 012-39E, altezza: 5 m

Osservazione

Il bollettino è stato emesso 9 minuti fa, alle 13:50 UTC
Vento 7 kt da est/nord-est, variando fra nord/nord-est e est
Temperature -1°C
Umidità 50%
Pressione 1036 hPa
Visibilità 10 km o più
Poco nuvoloso ad un'altezza di 3800 ft

METAR: EKCH 241350Z 06007KT 030V090 9999 FEW038 M01/M10 Q1036 NOSIG

Ora: 14:59 (13:59 UTC)

Previsione

Il bollettino è stato emesso 3 ore e 0 minuti fa, alle 10:59 UTC
Previsione valida dal 24 alle 12 UTC al 25 alle 12 UTC
Vento 12 kt da est/nord-est
Visibilità 10 km o più
Poco nuvoloso ad un'altezza di 2000 ft

TAF: EKCH 241059Z 2412/2512 06012KT 9999 FEW020

Osservazioni e previsioni meteorologiche di più di 4000 aeroporti (messaggi METAR e TAF).

Le stazioni disponibili sono rappresentate dai dischi gialli e rossi sulla carta.

Puntare il mouse per vedere il nome della stazione.

Clicca sopra per visualizzare le osservazioni e previsioni meteorologiche.

Per cambiare la mappa : fare clic sui pulsanti verdi con una croce nera per ingrandire, il pulsante verde con un trattino per diminuire, o sulla freccia verde per le mappe adiacenti.


METAR-TAF: